Young Spirit — D7OH — position and weather

sailwx.info

Track history (hours):
 
Tides and Currents Weather Stations Pressure Air Temp Water Temp Dewpoint Dewpoint Depression Visibility Wind Speed Wind Dir Waves Ship Positions

Young Spirit

Last reported at 2018-Jan-03 12:59 UTC. Time now 2018-Jan-24 05:51 UTC.
Position N 01°15' E 104°04'.
Warning: this ship's position is 20 days out of date.

Length 206 m; draft 7.3 m.

Type: Cargo ship. MMSI: 440274000.

Date/timePositionNaut miles runAvg speedWind from/ knotsBaromVisibWave heightAir tempDewpointWater temp
2018-Jan-03 12:59N 01°15' E 104°04'612.1
2018-Jan-03 12:30N 01°14' E 103°58'4 7.4
2018-Jan-03 11:58N 01°17' E 103°56'0 0.0
2018-Jan-03 06:33N 01°18' E 103°56'0 0.0
2018-Jan-03 05:09N 01°18' E 103°56'0 0.1
2018-Jan-03 02:51N 01°17' E 103°56'0 0.0
2018-Jan-03 00:39N 01°17' E 103°56'0 0.0
2018-Jan-03 00:21N 01°17' E 103°56'0 0.0
2018-Jan-02 23:45N 01°17' E 103°56'0 0.0
2018-Jan-02 23:27N 01°17' E 103°56'0 0.0
2018-Jan-02 22:51N 01°17' E 103°56'0 0.0
2018-Jan-02 21:15N 01°17' E 103°56'0 0.0
2018-Jan-02 20:57N 01°17' E 103°56'0 0.0
2018-Jan-02 20:27N 01°17' E 103°56'0 0.0
2018-Jan-02 19:21N 01°17' E 103°56'0 0.0
2018-Jan-02 17:42N 01°17' E 103°56'0 0.0
2018-Jan-02 17:27N 01°17' E 103°56'0 0.0
2018-Jan-02 16:57N 01°17' E 103°56'0 0.1
2018-Jan-02 16:12N 01°18' E 103°56'0 2.2
2018-Jan-02 16:01N 01°17' E 103°55'2 3.6
2018-Jan-02 15:29N 01°15' E 103°56'1 2.9
2018-Jan-02 14:58N 01°14' E 103°56'4 8.0
2018-Jan-02 14:31N 01°12' E 103°53'3 6.1
2018-Jan-02 14:01N 01°11' E 103°50'4 8.1
2018-Jan-02 13:31N 01°09' E 103°47'4 8.9
2018-Jan-02 13:01N 01°05' E 103°44'510.3
2018-Jan-02 12:30N 01°03' E 103°39'612.2
2018-Jan-02 12:00N 01°05' E 103°34'612.2
2018-Jan-02 11:29N 01°09' E 103°29'612.5
2018-Jan-02 10:58N 01°12' E 103°23'  
Track history (hours):
 
Tides and Currents Weather Stations Pressure Air Temp Water Temp Dewpoint Dewpoint Depression Visibility Wind Speed Wind Dir Waves Ship Positions

Young Spirit

Last reported at 2018-Jan-03 12:59 UTC. Time now 2018-Jan-24 05:51 UTC.
Position N 01°15' E 104°04'.
Warning: this ship's position is 20 days out of date.

Length 206 m; draft 7.3 m.

Type: Cargo ship. MMSI: 440274000.

Date/timePositionNaut miles runAvg speedWind from/ knotsBaromVisibWave heightAir tempDewpointWater temp
2018-Jan-03 12:59N 01°15' E 104°04'612.1
2018-Jan-03 12:30N 01°14' E 103°58'4 7.4
2018-Jan-03 11:58N 01°17' E 103°56'0 0.0
2018-Jan-03 06:33N 01°18' E 103°56'0 0.0
2018-Jan-03 05:09N 01°18' E 103°56'0 0.1
2018-Jan-03 02:51N 01°17' E 103°56'0 0.0
2018-Jan-03 00:39N 01°17' E 103°56'0 0.0
2018-Jan-03 00:21N 01°17' E 103°56'0 0.0
2018-Jan-02 23:45N 01°17' E 103°56'0 0.0
2018-Jan-02 23:27N 01°17' E 103°56'0 0.0
2018-Jan-02 22:51N 01°17' E 103°56'0 0.0
2018-Jan-02 21:15N 01°17' E 103°56'0 0.0
2018-Jan-02 20:57N 01°17' E 103°56'0 0.0
2018-Jan-02 20:27N 01°17' E 103°56'0 0.0
2018-Jan-02 19:21N 01°17' E 103°56'0 0.0
2018-Jan-02 17:42N 01°17' E 103°56'0 0.0
2018-Jan-02 17:27N 01°17' E 103°56'0 0.0
2018-Jan-02 16:57N 01°17' E 103°56'0 0.1
2018-Jan-02 16:12N 01°18' E 103°56'0 2.2
2018-Jan-02 16:01N 01°17' E 103°55'2 3.6
2018-Jan-02 15:29N 01°15' E 103°56'1 2.9
2018-Jan-02 14:58N 01°14' E 103°56'4 8.0
2018-Jan-02 14:31N 01°12' E 103°53'3 6.1
2018-Jan-02 14:01N 01°11' E 103°50'4 8.1
2018-Jan-02 13:31N 01°09' E 103°47'4 8.9
2018-Jan-02 13:01N 01°05' E 103°44'510.3
2018-Jan-02 12:30N 01°03' E 103°39'612.2
2018-Jan-02 12:00N 01°05' E 103°34'612.2
2018-Jan-02 11:29N 01°09' E 103°29'612.5
2018-Jan-02 10:58N 01°12' E 103°23'  

Dump ship's entire track history